Date,TemperatureHighF,TemperatureAvgF,TemperatureLowF,DewpointHighF,DewpointAvgF,DewpointLowF,HumidityHigh,HumidityAvg,HumidityLow,PressureMaxIn,PressureMinIn,WindSpeedMaxMPH,WindSpeedAvgMPH,GustSpeedMaxMPH,PrecipitationSumIn
2013-10-1,68,67,66,62,61,61,86,82,80,0.00,40.00,3,2,5,0.00
2013-10-2,79,70,64,65,62,60,90,77,59,0.00,40.00,4,2,9,0.00
2013-10-3,78,71,65,63,61,58,90,73,55,0.00,40.00,5,3,11,0.00
2013-10-4,76,69,64,65,62,59,90,80,66,0.00,40.00,5,3,9,0.00
2013-10-5,81,72,66,66,63,61,89,76,58,0.00,40.00,6,4,13,0.00
2013-10-6,75,68,54,69,63,53,98,86,74,0.00,40.00,9,6,24,0.40
2013-10-7,66,56,50,53,49,47,98,81,53,0.00,40.00,8,4,21,0.42
2013-10-8,71,59,51,54,48,42,87,67,53,0.00,40.00,8,5,28,0.00
2013-10-9,72,62,55,58,54,51,92,76,59,0.00,40.00,6,4,10,0.00
2013-10-10,76,65,58,59,55,52,85,71,53,0.00,40.00,5,3,15,0.00
2013-10-11,75,63,54,55,51,48,83,67,45,0.00,40.00,6,4,14,0.00
2013-10-12,77,64,57,58,52,-100,86,68,50,0.00,40.00,5,3,14,0.00
2013-10-13,75,65,58,58,54,51,81,69,52,0.00,40.00,5,4,13,0.00
2013-10-14,75,66,58,60,57,54,89,75,56,0.00,40.00,6,4,14,0.00
2013-10-15,66,62,58,59,57,56,93,85,72,0.00,40.00,7,4,16,0.00
2013-10-16,65,60,57,62,58,55,99,92,82,0.00,40.00,6,3,11,0.07
2013-10-17,64,59,49,64,58,48,100,98,86,0.00,40.00,7,4,18,0.52
2013-10-18,65,52,44,50,46,44,99,83,49,0.00,40.00,5,3,11,0.01
2013-10-19,63,52,43,53,46,-100,97,83,64,0.00,40.00,6,4,19,0.00
2013-10-20,62,48,37,43,38,34,98,72,43,0.00,40.00,5,3,10,0.01
2013-10-21,65,55,46,47,41,36,73,62,48,0.00,40.00,4,3,9,0.01
2013-10-22,61,55,49,51,48,44,94,79,62,0.00,40.00,5,3,13,0.00
2013-10-23,50,45,35,47,37,30,94,76,48,0.00,40.00,9,5,25,0.00
2013-10-24,54,43,36,39,35,31,86,73,54,0.00,40.00,7,4,17,0.00
2013-10-25,50,38,27,33,24,21,85,61,33,0.00,40.00,6,4,17,0.00
2013-10-26,54,43,33,34,25,-100,72,51,33,0.00,40.00,7,4,16,0.00
2013-10-27,57,52,46,52,44,34,92,74,55,0.00,40.00,7,3,16,0.00
2013-10-28,56,53,51,55,50,-100,99,93,85,0.00,40.00,4,3,11,0.05
2013-10-29,65,58,53,57,54,53,100,90,71,0.00,40.00,7,4,12,0.01
2013-10-30,74,64,57,57,54,49,91,72,41,0.00,40.00,8,4,15,0.00
2013-10-31,68,63,58,63,57,52,98,81,71,0.00,40.00,13,8,31,0.13